sensor_id;sensor_type;location;lat;lon;timestamp;P1;durP1;ratioP1;P2;durP2;ratioP2
40501;SDS011;29631;49.168;9.848;2023-09-19T00:00:20;1.52;;;0.70;;
40501;SDS011;29631;49.168;9.848;2023-09-19T00:02:56;1.50;;;0.68;;
40501;SDS011;29631;49.168;9.848;2023-09-19T00:05:26;0.70;;;0.70;;
40501;SDS011;29631;49.168;9.848;2023-09-19T00:07:55;1.20;;;0.80;;
40501;SDS011;29631;49.168;9.848;2023-09-19T00:10:27;0.60;;;0.60;;
40501;SDS011;29631;49.168;9.848;2023-09-19T00:12:56;0.73;;;0.73;;
40501;SDS011;29631;49.168;9.848;2023-09-19T00:15:26;0.90;;;0.90;;
40501;SDS011;29631;49.168;9.848;2023-09-19T00:17:55;1.25;;;0.90;;
40501;SDS011;29631;49.168;9.848;2023-09-19T00:20:21;0.70;;;0.70;;
40501;SDS011;29631;49.168;9.848;2023-09-19T00:22:49;0.75;;;0.75;;
40501;SDS011;29631;49.168;9.848;2023-09-19T00:25:18;1.48;;;0.75;;
40501;SDS011;29631;49.168;9.848;2023-09-19T00:27:45;1.27;;;0.77;;
40501;SDS011;29631;49.168;9.848;2023-09-19T00:30:16;0.80;;;0.80;;
40501;SDS011;29631;49.168;9.848;2023-09-19T00:32:49;0.65;;;0.65;;
40501;SDS011;29631;49.168;9.848;2023-09-19T00:35:19;0.90;;;0.90;;
40501;SDS011;29631;49.168;9.848;2023-09-19T00:37:49;0.88;;;0.80;;
40501;SDS011;29631;49.168;9.848;2023-09-19T00:40:15;0.90;;;0.90;;
40501;SDS011;29631;49.168;9.848;2023-09-19T00:42:44;1.60;;;0.80;;
40501;SDS011;29631;49.168;9.848;2023-09-19T00:45:12;0.80;;;0.80;;
40501;SDS011;29631;49.168;9.848;2023-09-19T00:47:49;0.80;;;0.80;;
40501;SDS011;29631;49.168;9.848;2023-09-19T00:50:21;0.80;;;0.80;;
40501;SDS011;29631;49.168;9.848;2023-09-19T00:52:50;0.80;;;0.80;;
40501;SDS011;29631;49.168;9.848;2023-09-19T00:55:22;0.80;;;0.70;;
40501;SDS011;29631;49.168;9.848;2023-09-19T00:57:49;1.10;;;0.82;;
40501;SDS011;29631;49.168;9.848;2023-09-19T01:00:15;1.00;;;1.00;;
40501;SDS011;29631;49.168;9.848;2023-09-19T01:02:44;0.88;;;0.88;;
40501;SDS011;29631;49.168;9.848;2023-09-19T01:05:11;0.60;;;0.60;;
40501;SDS011;29631;49.168;9.848;2023-09-19T01:07:37;0.85;;;0.85;;
40501;SDS011;29631;49.168;9.848;2023-09-19T01:10:11;1.45;;;0.85;;
40501;SDS011;29631;49.168;9.848;2023-09-19T01:13:26;1.02;;;0.98;;
40501;SDS011;29631;49.168;9.848;2023-09-19T01:21:59;1.00;;;1.00;;
40501;SDS011;29631;49.168;9.848;2023-09-19T01:30:46;0.85;;;0.85;;
40501;SDS011;29631;49.168;9.848;2023-09-19T01:33:19;1.35;;;0.90;;
40501;SDS011;29631;49.168;9.848;2023-09-19T01:35:45;0.80;;;0.80;;
40501;SDS011;29631;49.168;9.848;2023-09-19T01:38:10;1.60;;;0.98;;
40501;SDS011;29631;49.168;9.848;2023-09-19T01:40:41;1.02;;;1.02;;
40501;SDS011;29631;49.168;9.848;2023-09-19T01:43:12;1.00;;;1.00;;
40501;SDS011;29631;49.168;9.848;2023-09-19T01:48:42;0.80;;;0.80;;
40501;SDS011;29631;49.168;9.848;2023-09-19T01:51:19;1.17;;;1.08;;
40501;SDS011;29631;49.168;9.848;2023-09-19T01:53:58;0.85;;;0.85;;
40501;SDS011;29631;49.168;9.848;2023-09-19T01:59:16;1.10;;;1.00;;
40501;SDS011;29631;49.168;9.848;2023-09-19T02:01:49;0.90;;;0.90;;
40501;SDS011;29631;49.168;9.848;2023-09-19T02:04:18;0.85;;;0.85;;
40501;SDS011;29631;49.168;9.848;2023-09-19T02:06:43;0.95;;;0.90;;
40501;SDS011;29631;49.168;9.848;2023-09-19T02:09:12;0.90;;;0.90;;
40501;SDS011;29631;49.168;9.848;2023-09-19T02:11:42;1.00;;;1.00;;
40501;SDS011;29631;49.168;9.848;2023-09-19T02:14:08;1.05;;;0.90;;
40501;SDS011;29631;49.168;9.848;2023-09-19T02:16:34;1.27;;;0.93;;
40501;SDS011;29631;49.168;9.848;2023-09-19T02:19:00;1.05;;;1.05;;
40501;SDS011;29631;49.168;9.848;2023-09-19T02:21:30;1.85;;;1.00;;
40501;SDS011;29631;49.168;9.848;2023-09-19T02:23:56;0.88;;;0.88;;
40501;SDS011;29631;49.168;9.848;2023-09-19T02:26:21;1.00;;;1.00;;
40501;SDS011;29631;49.168;9.848;2023-09-19T02:28:52;1.00;;;1.00;;
40501;SDS011;29631;49.168;9.848;2023-09-19T02:31:18;1.17;;;1.08;;
40501;SDS011;29631;49.168;9.848;2023-09-19T02:33:43;0.80;;;0.80;;
40501;SDS011;29631;49.168;9.848;2023-09-19T02:36:11;0.90;;;0.90;;
40501;SDS011;29631;49.168;9.848;2023-09-19T02:38:36;0.73;;;0.73;;
40501;SDS011;29631;49.168;9.848;2023-09-19T02:41:02;0.95;;;0.95;;
40501;SDS011;29631;49.168;9.848;2023-09-19T02:43:28;1.05;;;1.00;;
40501;SDS011;29631;49.168;9.848;2023-09-19T02:45:54;1.00;;;1.00;;
40501;SDS011;29631;49.168;9.848;2023-09-19T02:48:22;1.20;;;1.20;;
40501;SDS011;29631;49.168;9.848;2023-09-19T02:50:50;1.02;;;0.98;;
40501;SDS011;29631;49.168;9.848;2023-09-19T02:53:17;1.00;;;1.00;;
40501;SDS011;29631;49.168;9.848;2023-09-19T02:55:43;1.85;;;1.05;;
40501;SDS011;29631;49.168;9.848;2023-09-19T02:58:09;0.90;;;0.90;;
40501;SDS011;29631;49.168;9.848;2023-09-19T03:00:39;1.13;;;1.10;;
40501;SDS011;29631;49.168;9.848;2023-09-19T03:03:07;1.02;;;1.00;;
40501;SDS011;29631;49.168;9.848;2023-09-19T03:05:33;0.85;;;0.85;;
40501;SDS011;29631;49.168;9.848;2023-09-19T03:07:59;0.88;;;0.88;;
40501;SDS011;29631;49.168;9.848;2023-09-19T03:10:26;0.88;;;0.88;;
40501;SDS011;29631;49.168;9.848;2023-09-19T03:12:52;1.05;;;1.00;;
40501;SDS011;29631;49.168;9.848;2023-09-19T03:15:18;0.77;;;0.77;;
40501;SDS011;29631;49.168;9.848;2023-09-19T03:17:46;0.90;;;0.90;;
40501;SDS011;29631;49.168;9.848;2023-09-19T03:20:13;0.98;;;0.90;;
40501;SDS011;29631;49.168;9.848;2023-09-19T03:22:42;1.20;;;1.10;;
40501;SDS011;29631;49.168;9.848;2023-09-19T03:25:09;3.03;;;1.20;;
40501;SDS011;29631;49.168;9.848;2023-09-19T03:27:38;1.00;;;1.00;;
40501;SDS011;29631;49.168;9.848;2023-09-19T03:30:05;1.20;;;1.10;;
40501;SDS011;29631;49.168;9.848;2023-09-19T03:32:36;1.00;;;1.00;;
40501;SDS011;29631;49.168;9.848;2023-09-19T03:35:08;1.00;;;1.00;;
40501;SDS011;29631;49.168;9.848;2023-09-19T03:37:39;1.77;;;1.00;;
40501;SDS011;29631;49.168;9.848;2023-09-19T03:40:08;1.58;;;0.85;;
40501;SDS011;29631;49.168;9.848;2023-09-19T03:42:39;0.82;;;0.82;;
40501;SDS011;29631;49.168;9.848;2023-09-19T03:45:06;1.05;;;1.02;;
40501;SDS011;29631;49.168;9.848;2023-09-19T03:47:39;0.80;;;0.80;;
40501;SDS011;29631;49.168;9.848;2023-09-19T03:50:05;3.03;;;1.10;;
40501;SDS011;29631;49.168;9.848;2023-09-19T03:52:33;1.20;;;0.93;;
40501;SDS011;29631;49.168;9.848;2023-09-19T03:54:59;0.98;;;0.98;;
40501;SDS011;29631;49.168;9.848;2023-09-19T03:57:26;1.00;;;1.00;;
40501;SDS011;29631;49.168;9.848;2023-09-19T03:59:52;0.90;;;0.90;;
40501;SDS011;29631;49.168;9.848;2023-09-19T04:02:19;3.03;;;0.90;;
40501;SDS011;29631;49.168;9.848;2023-09-19T04:04:49;1.00;;;1.00;;
40501;SDS011;29631;49.168;9.848;2023-09-19T04:07:15;1.08;;;1.08;;
40501;SDS011;29631;49.168;9.848;2023-09-19T04:09:42;1.23;;;1.10;;
40501;SDS011;29631;49.168;9.848;2023-09-19T04:12:07;1.02;;;1.02;;
40501;SDS011;29631;49.168;9.848;2023-09-19T04:14:34;1.00;;;1.00;;
40501;SDS011;29631;49.168;9.848;2023-09-19T04:16:59;0.90;;;0.90;;
40501;SDS011;29631;49.168;9.848;2023-09-19T04:19:25;1.00;;;0.90;;
40501;SDS011;29631;49.168;9.848;2023-09-19T04:21:51;2.90;;;1.00;;
40501;SDS011;29631;49.168;9.848;2023-09-19T04:24:17;1.15;;;1.10;;
40501;SDS011;29631;49.168;9.848;2023-09-19T04:26:44;1.20;;;1.10;;
40501;SDS011;29631;49.168;9.848;2023-09-19T04:29:10;1.10;;;1.00;;
40501;SDS011;29631;49.168;9.848;2023-09-19T04:31:38;1.10;;;1.10;;
40501;SDS011;29631;49.168;9.848;2023-09-19T04:34:05;0.88;;;0.82;;
40501;SDS011;29631;49.168;9.848;2023-09-19T04:36:33;1.05;;;1.05;;
40501;SDS011;29631;49.168;9.848;2023-09-19T04:39:01;1.20;;;1.20;;
40501;SDS011;29631;49.168;9.848;2023-09-19T04:41:32;1.80;;;1.10;;
40501;SDS011;29631;49.168;9.848;2023-09-19T04:43:58;2.38;;;1.13;;
40501;SDS011;29631;49.168;9.848;2023-09-19T04:46:25;0.98;;;0.98;;
40501;SDS011;29631;49.168;9.848;2023-09-19T04:48:50;1.10;;;1.10;;
40501;SDS011;29631;49.168;9.848;2023-09-19T04:51:16;1.10;;;1.00;;
40501;SDS011;29631;49.168;9.848;2023-09-19T04:53:43;1.73;;;1.13;;
40501;SDS011;29631;49.168;9.848;2023-09-19T04:56:09;0.80;;;0.80;;
40501;SDS011;29631;49.168;9.848;2023-09-19T04:58:34;1.65;;;1.05;;
40501;SDS011;29631;49.168;9.848;2023-09-19T05:01:00;0.80;;;0.80;;
40501;SDS011;29631;49.168;9.848;2023-09-19T05:03:27;1.70;;;1.20;;
40501;SDS011;29631;49.168;9.848;2023-09-19T05:05:53;1.20;;;1.10;;
40501;SDS011;29631;49.168;9.848;2023-09-19T05:08:19;1.55;;;1.00;;
40501;SDS011;29631;49.168;9.848;2023-09-19T05:10:44;1.30;;;1.00;;
40501;SDS011;29631;49.168;9.848;2023-09-19T05:13:10;1.00;;;1.00;;
40501;SDS011;29631;49.168;9.848;2023-09-19T05:15:37;1.40;;;0.98;;
40501;SDS011;29631;49.168;9.848;2023-09-19T05:18:02;1.95;;;0.95;;
40501;SDS011;29631;49.168;9.848;2023-09-19T05:20:29;1.20;;;1.10;;
40501;SDS011;29631;49.168;9.848;2023-09-19T05:23:02;1.02;;;1.02;;
40501;SDS011;29631;49.168;9.848;2023-09-19T05:25:37;1.15;;;1.13;;
40501;SDS011;29631;49.168;9.848;2023-09-19T05:28:08;1.38;;;1.02;;
40501;SDS011;29631;49.168;9.848;2023-09-19T05:30:36;1.10;;;1.05;;
40501;SDS011;29631;49.168;9.848;2023-09-19T05:33:03;0.88;;;0.88;;
40501;SDS011;29631;49.168;9.848;2023-09-19T05:35:30;1.00;;;1.00;;
40501;SDS011;29631;49.168;9.848;2023-09-19T05:37:56;1.20;;;1.15;;
40501;SDS011;29631;49.168;9.848;2023-09-19T05:40:23;1.15;;;1.10;;
40501;SDS011;29631;49.168;9.848;2023-09-19T05:42:50;1.45;;;1.38;;
40501;SDS011;29631;49.168;9.848;2023-09-19T05:45:16;1.23;;;1.23;;
40501;SDS011;29631;49.168;9.848;2023-09-19T05:47:47;1.38;;;1.30;;
40501;SDS011;29631;49.168;9.848;2023-09-19T05:50:14;1.23;;;1.13;;
40501;SDS011;29631;49.168;9.848;2023-09-19T05:52:41;1.13;;;1.13;;
40501;SDS011;29631;49.168;9.848;2023-09-19T05:55:09;1.98;;;1.10;;
40501;SDS011;29631;49.168;9.848;2023-09-19T05:57:35;1.42;;;1.13;;
40501;SDS011;29631;49.168;9.848;2023-09-19T06:00:07;1.25;;;1.25;;
40501;SDS011;29631;49.168;9.848;2023-09-19T06:02:38;1.17;;;1.17;;
40501;SDS011;29631;49.168;9.848;2023-09-19T06:05:05;3.22;;;1.48;;
40501;SDS011;29631;49.168;9.848;2023-09-19T06:07:35;1.40;;;1.30;;
40501;SDS011;29631;49.168;9.848;2023-09-19T06:10:04;2.60;;;1.40;;
40501;SDS011;29631;49.168;9.848;2023-09-19T06:12:31;1.38;;;1.27;;
40501;SDS011;29631;49.168;9.848;2023-09-19T06:14:58;1.50;;;1.40;;
40501;SDS011;29631;49.168;9.848;2023-09-19T06:17:24;1.48;;;1.40;;
40501;SDS011;29631;49.168;9.848;2023-09-19T06:19:52;1.40;;;1.30;;
40501;SDS011;29631;49.168;9.848;2023-09-19T06:22:17;1.60;;;1.40;;
40501;SDS011;29631;49.168;9.848;2023-09-19T06:24:43;2.28;;;1.33;;
40501;SDS011;29631;49.168;9.848;2023-09-19T06:27:10;1.15;;;1.15;;
40501;SDS011;29631;49.168;9.848;2023-09-19T06:29:35;1.98;;;1.42;;
40501;SDS011;29631;49.168;9.848;2023-09-19T06:32:06;1.92;;;1.42;;
40501;SDS011;29631;49.168;9.848;2023-09-19T06:34:35;1.30;;;1.20;;
40501;SDS011;29631;49.168;9.848;2023-09-19T06:37:03;1.30;;;1.30;;
40501;SDS011;29631;49.168;9.848;2023-09-19T06:39:31;1.33;;;1.23;;
40501;SDS011;29631;49.168;9.848;2023-09-19T06:41:57;1.30;;;1.20;;
40501;SDS011;29631;49.168;9.848;2023-09-19T06:44:23;1.77;;;1.60;;
40501;SDS011;29631;49.168;9.848;2023-09-19T06:46:49;1.75;;;1.65;;
40501;SDS011;29631;49.168;9.848;2023-09-19T06:49:16;1.38;;;1.30;;
40501;SDS011;29631;49.168;9.848;2023-09-19T06:51:44;1.40;;;1.30;;
40501;SDS011;29631;49.168;9.848;2023-09-19T06:54:10;2.15;;;1.50;;
40501;SDS011;29631;49.168;9.848;2023-09-19T06:56:36;2.10;;;1.58;;
40501;SDS011;29631;49.168;9.848;2023-09-19T06:59:01;1.67;;;1.30;;
40501;SDS011;29631;49.168;9.848;2023-09-19T07:01:28;1.30;;;1.30;;
40501;SDS011;29631;49.168;9.848;2023-09-19T07:03:54;1.60;;;1.45;;
40501;SDS011;29631;49.168;9.848;2023-09-19T07:06:20;2.92;;;1.40;;
40501;SDS011;29631;49.168;9.848;2023-09-19T07:08:46;1.60;;;1.50;;
40501;SDS011;29631;49.168;9.848;2023-09-19T07:11:12;1.48;;;1.35;;
40501;SDS011;29631;49.168;9.848;2023-09-19T07:13:37;2.13;;;1.90;;
40501;SDS011;29631;49.168;9.848;2023-09-19T07:16:04;1.50;;;1.38;;
40501;SDS011;29631;49.168;9.848;2023-09-19T07:18:30;2.25;;;1.60;;
40501;SDS011;29631;49.168;9.848;2023-09-19T07:20:57;1.75;;;1.65;;
40501;SDS011;29631;49.168;9.848;2023-09-19T07:23:29;1.90;;;1.80;;
40501;SDS011;29631;49.168;9.848;2023-09-19T07:26:00;1.67;;;1.63;;
40501;SDS011;29631;49.168;9.848;2023-09-19T07:28:27;2.10;;;1.70;;
40501;SDS011;29631;49.168;9.848;2023-09-19T07:30:53;1.90;;;1.80;;
40501;SDS011;29631;49.168;9.848;2023-09-19T07:33:19;1.40;;;1.40;;
40501;SDS011;29631;49.168;9.848;2023-09-19T07:35:45;1.73;;;1.60;;
40501;SDS011;29631;49.168;9.848;2023-09-19T07:38:12;1.58;;;1.58;;
40501;SDS011;29631;49.168;9.848;2023-09-19T07:40:38;1.85;;;1.60;;
40501;SDS011;29631;49.168;9.848;2023-09-19T07:43:04;4.18;;;1.80;;
40501;SDS011;29631;49.168;9.848;2023-09-19T07:45:31;1.30;;;1.30;;
40501;SDS011;29631;49.168;9.848;2023-09-19T07:47:57;1.60;;;1.50;;
40501;SDS011;29631;49.168;9.848;2023-09-19T07:50:29;2.28;;;1.73;;
40501;SDS011;29631;49.168;9.848;2023-09-19T07:52:55;1.88;;;1.50;;
40501;SDS011;29631;49.168;9.848;2023-09-19T07:55:21;1.60;;;1.50;;
40501;SDS011;29631;49.168;9.848;2023-09-19T07:57:54;1.67;;;1.60;;
40501;SDS011;29631;49.168;9.848;2023-09-19T08:00:20;1.67;;;1.58;;
40501;SDS011;29631;49.168;9.848;2023-09-19T08:02:46;1.58;;;1.58;;
40501;SDS011;29631;49.168;9.848;2023-09-19T08:05:13;1.40;;;1.30;;
40501;SDS011;29631;49.168;9.848;2023-09-19T08:07:42;1.58;;;1.50;;
40501;SDS011;29631;49.168;9.848;2023-09-19T08:10:15;1.48;;;1.40;;
40501;SDS011;29631;49.168;9.848;2023-09-19T08:12:45;1.40;;;1.40;;
40501;SDS011;29631;49.168;9.848;2023-09-19T08:15:15;1.65;;;1.55;;
40501;SDS011;29631;49.168;9.848;2023-09-19T08:17:46;1.98;;;1.60;;
40501;SDS011;29631;49.168;9.848;2023-09-19T08:20:13;1.35;;;1.30;;
40501;SDS011;29631;49.168;9.848;2023-09-19T08:22:52;1.25;;;1.25;;
40501;SDS011;29631;49.168;9.848;2023-09-19T08:25:21;2.33;;;1.15;;
40501;SDS011;29631;49.168;9.848;2023-09-19T08:27:48;1.75;;;1.20;;
40501;SDS011;29631;49.168;9.848;2023-09-19T08:30:15;1.08;;;1.08;;
40501;SDS011;29631;49.168;9.848;2023-09-19T08:32:43;1.13;;;0.90;;
40501;SDS011;29631;49.168;9.848;2023-09-19T08:35:10;1.20;;;1.10;;
40501;SDS011;29631;49.168;9.848;2023-09-19T08:37:36;1.13;;;1.10;;
40501;SDS011;29631;49.168;9.848;2023-09-19T08:40:01;1.27;;;1.00;;
40501;SDS011;29631;49.168;9.848;2023-09-19T08:42:27;1.42;;;0.98;;
40501;SDS011;29631;49.168;9.848;2023-09-19T08:44:54;1.40;;;1.25;;
40501;SDS011;29631;49.168;9.848;2023-09-19T08:47:25;1.33;;;1.23;;
40501;SDS011;29631;49.168;9.848;2023-09-19T08:52:51;3.65;;;1.00;;
40501;SDS011;29631;49.168;9.848;2023-09-19T08:55:20;1.30;;;1.10;;
40501;SDS011;29631;49.168;9.848;2023-09-19T08:57:52;1.02;;;0.90;;
40501;SDS011;29631;49.168;9.848;2023-09-19T09:00:28;0.80;;;0.80;;
40501;SDS011;29631;49.168;9.848;2023-09-19T09:02:55;0.88;;;0.88;;
40501;SDS011;29631;49.168;9.848;2023-09-19T09:05:23;1.00;;;1.00;;
40501;SDS011;29631;49.168;9.848;2023-09-19T09:07:51;0.95;;;0.85;;
40501;SDS011;29631;49.168;9.848;2023-09-19T09:10:21;1.15;;;1.05;;
40501;SDS011;29631;49.168;9.848;2023-09-19T09:12:51;1.40;;;1.00;;
40501;SDS011;29631;49.168;9.848;2023-09-19T09:15:21;4.18;;;1.17;;
40501;SDS011;29631;49.168;9.848;2023-09-19T09:17:50;1.02;;;0.98;;
40501;SDS011;29631;49.168;9.848;2023-09-19T09:20:18;1.33;;;1.00;;
40501;SDS011;29631;49.168;9.848;2023-09-19T09:22:50;1.77;;;0.80;;
40501;SDS011;29631;49.168;9.848;2023-09-19T09:25:18;1.17;;;1.00;;
40501;SDS011;29631;49.168;9.848;2023-09-19T09:27:45;2.92;;;1.25;;
40501;SDS011;29631;49.168;9.848;2023-09-19T09:30:35;1.27;;;1.17;;
40501;SDS011;29631;49.168;9.848;2023-09-19T09:33:12;0.80;;;0.80;;
40501;SDS011;29631;49.168;9.848;2023-09-19T09:38:28;2.03;;;1.33;;
40501;SDS011;29631;49.168;9.848;2023-09-19T09:41:09;1.45;;;1.35;;
40501;SDS011;29631;49.168;9.848;2023-09-19T09:43:37;0.90;;;0.90;;
40501;SDS011;29631;49.168;9.848;2023-09-19T09:48:47;1.30;;;1.20;;
40501;SDS011;29631;49.168;9.848;2023-09-19T09:52:01;1.00;;;1.00;;
40501;SDS011;29631;49.168;9.848;2023-09-19T09:55:00;1.58;;;1.02;;
40501;SDS011;29631;49.168;9.848;2023-09-19T09:57:30;1.17;;;1.08;;
40501;SDS011;29631;49.168;9.848;2023-09-19T09:59:58;1.35;;;0.93;;
40501;SDS011;29631;49.168;9.848;2023-09-19T10:02:41;2.25;;;1.40;;
40501;SDS011;29631;49.168;9.848;2023-09-19T10:07:52;1.67;;;1.10;;
40501;SDS011;29631;49.168;9.848;2023-09-19T10:13:31;1.25;;;1.15;;
40501;SDS011;29631;49.168;9.848;2023-09-19T10:16:04;1.30;;;1.23;;
40501;SDS011;29631;49.168;9.848;2023-09-19T10:18:35;1.52;;;0.98;;
40501;SDS011;29631;49.168;9.848;2023-09-19T10:21:04;1.05;;;1.00;;
40501;SDS011;29631;49.168;9.848;2023-09-19T10:23:32;1.05;;;1.00;;
40501;SDS011;29631;49.168;9.848;2023-09-19T10:25:59;1.75;;;0.93;;
40501;SDS011;29631;49.168;9.848;2023-09-19T10:28:27;1.33;;;1.10;;
40501;SDS011;29631;49.168;9.848;2023-09-19T10:30:55;2.70;;;1.30;;
40501;SDS011;29631;49.168;9.848;2023-09-19T10:33:23;1.08;;;1.08;;
40501;SDS011;29631;49.168;9.848;2023-09-19T10:35:54;1.35;;;1.25;;
40501;SDS011;29631;49.168;9.848;2023-09-19T10:38:25;1.55;;;0.90;;
40501;SDS011;29631;49.168;9.848;2023-09-19T10:40:54;1.20;;;1.10;;
40501;SDS011;29631;49.168;9.848;2023-09-19T10:43:31;1.45;;;1.20;;
40501;SDS011;29631;49.168;9.848;2023-09-19T10:46:02;1.05;;;0.98;;
40501;SDS011;29631;49.168;9.848;2023-09-19T10:48:32;1.70;;;1.38;;
40501;SDS011;29631;49.168;9.848;2023-09-19T10:53:47;1.20;;;1.10;;
40501;SDS011;29631;49.168;9.848;2023-09-19T10:56:30;1.08;;;1.00;;
40501;SDS011;29631;49.168;9.848;2023-09-19T10:59:13;1.27;;;1.20;;
40501;SDS011;29631;49.168;9.848;2023-09-19T11:01:50;2.45;;;1.10;;
40501;SDS011;29631;49.168;9.848;2023-09-19T11:04:28;1.45;;;1.35;;
40501;SDS011;29631;49.168;9.848;2023-09-19T11:07:06;1.98;;;1.00;;
40501;SDS011;29631;49.168;9.848;2023-09-19T11:09:45;1.00;;;1.00;;
40501;SDS011;29631;49.168;9.848;2023-09-19T11:15:06;1.27;;;1.10;;
40501;SDS011;29631;49.168;9.848;2023-09-19T11:17:34;1.10;;;1.10;;
40501;SDS011;29631;49.168;9.848;2023-09-19T11:25:59;1.13;;;1.13;;
40501;SDS011;29631;49.168;9.848;2023-09-19T11:30:36;1.58;;;1.48;;
40501;SDS011;29631;49.168;9.848;2023-09-19T11:33:22;0.90;;;0.90;;
40501;SDS011;29631;49.168;9.848;2023-09-19T11:43:45;2.30;;;1.08;;
40501;SDS011;29631;49.168;9.848;2023-09-19T11:46:11;1.40;;;1.30;;
40501;SDS011;29631;49.168;9.848;2023-09-19T11:48:41;2.13;;;1.20;;
40501;SDS011;29631;49.168;9.848;2023-09-19T11:51:13;2.47;;;1.42;;
40501;SDS011;29631;49.168;9.848;2023-09-19T11:53:44;1.10;;;1.10;;
40501;SDS011;29631;49.168;9.848;2023-09-19T11:56:15;1.23;;;1.10;;
40501;SDS011;29631;49.168;9.848;2023-09-19T11:58:46;1.25;;;1.13;;
40501;SDS011;29631;49.168;9.848;2023-09-19T12:01:22;1.02;;;1.00;;
40501;SDS011;29631;49.168;9.848;2023-09-19T12:03:59;1.48;;;1.10;;
40501;SDS011;29631;49.168;9.848;2023-09-19T12:06:29;1.20;;;1.10;;
40501;SDS011;29631;49.168;9.848;2023-09-19T12:08:57;2.03;;;1.17;;
40501;SDS011;29631;49.168;9.848;2023-09-19T12:11:28;1.20;;;1.20;;
40501;SDS011;29631;49.168;9.848;2023-09-19T12:13:59;0.98;;;0.90;;
40501;SDS011;29631;49.168;9.848;2023-09-19T12:16:26;2.67;;;1.40;;
40501;SDS011;29631;49.168;9.848;2023-09-19T12:18:55;1.10;;;0.98;;
40501;SDS011;29631;49.168;9.848;2023-09-19T12:21:27;1.45;;;0.95;;
40501;SDS011;29631;49.168;9.848;2023-09-19T12:26:38;1.20;;;1.10;;
40501;SDS011;29631;49.168;9.848;2023-09-19T12:29:09;1.17;;;1.10;;
40501;SDS011;29631;49.168;9.848;2023-09-19T12:31:47;1.20;;;1.10;;
40501;SDS011;29631;49.168;9.848;2023-09-19T12:34:26;1.10;;;1.00;;
40501;SDS011;29631;49.168;9.848;2023-09-19T12:39:52;1.02;;;1.02;;
40501;SDS011;29631;49.168;9.848;2023-09-19T12:42:20;1.00;;;1.00;;
40501;SDS011;29631;49.168;9.848;2023-09-19T12:44:56;1.00;;;1.00;;
40501;SDS011;29631;49.168;9.848;2023-09-19T12:47:26;2.65;;;0.98;;
40501;SDS011;29631;49.168;9.848;2023-09-19T12:50:08;3.10;;;1.38;;
40501;SDS011;29631;49.168;9.848;2023-09-19T12:52:47;1.27;;;1.17;;
40501;SDS011;29631;49.168;9.848;2023-09-19T12:55:27;1.00;;;1.00;;
40501;SDS011;29631;49.168;9.848;2023-09-19T12:57:58;1.10;;;1.00;;
40501;SDS011;29631;49.168;9.848;2023-09-19T13:05:59;1.05;;;1.05;;
40501;SDS011;29631;49.168;9.848;2023-09-19T13:08:36;1.40;;;1.20;;
40501;SDS011;29631;49.168;9.848;2023-09-19T13:13:44;1.10;;;1.10;;
40501;SDS011;29631;49.168;9.848;2023-09-19T13:16:19;1.15;;;1.05;;
40501;SDS011;29631;49.168;9.848;2023-09-19T13:18:51;2.15;;;1.23;;
40501;SDS011;29631;49.168;9.848;2023-09-19T13:24:23;1.88;;;1.30;;
40501;SDS011;29631;49.168;9.848;2023-09-19T13:26:54;1.42;;;1.08;;
40501;SDS011;29631;49.168;9.848;2023-09-19T13:29:20;1.45;;;1.35;;
40501;SDS011;29631;49.168;9.848;2023-09-19T13:31:49;1.10;;;1.00;;
40501;SDS011;29631;49.168;9.848;2023-09-19T13:34:19;1.13;;;1.00;;
40501;SDS011;29631;49.168;9.848;2023-09-19T13:36:46;1.20;;;1.10;;
40501;SDS011;29631;49.168;9.848;2023-09-19T13:39:15;1.20;;;0.90;;
40501;SDS011;29631;49.168;9.848;2023-09-19T13:41:43;1.20;;;1.10;;
40501;SDS011;29631;49.168;9.848;2023-09-19T13:44:11;1.52;;;1.17;;
40501;SDS011;29631;49.168;9.848;2023-09-19T13:46:37;1.35;;;1.20;;
40501;SDS011;29631;49.168;9.848;2023-09-19T13:49:03;1.10;;;1.10;;
40501;SDS011;29631;49.168;9.848;2023-09-19T13:51:30;0.80;;;0.80;;
40501;SDS011;29631;49.168;9.848;2023-09-19T13:53:57;1.10;;;1.10;;
40501;SDS011;29631;49.168;9.848;2023-09-19T13:56:22;1.10;;;1.10;;
40501;SDS011;29631;49.168;9.848;2023-09-19T13:58:49;0.90;;;0.90;;
40501;SDS011;29631;49.168;9.848;2023-09-19T14:01:16;1.00;;;1.00;;
40501;SDS011;29631;49.168;9.848;2023-09-19T14:03:42;0.88;;;0.88;;
40501;SDS011;29631;49.168;9.848;2023-09-19T14:06:11;3.05;;;1.35;;
40501;SDS011;29631;49.168;9.848;2023-09-19T14:08:37;1.20;;;1.10;;
40501;SDS011;29631;49.168;9.848;2023-09-19T14:11:07;1.23;;;1.20;;
40501;SDS011;29631;49.168;9.848;2023-09-19T14:13:33;1.40;;;1.20;;
40501;SDS011;29631;49.168;9.848;2023-09-19T14:16:03;1.45;;;1.38;;
40501;SDS011;29631;49.168;9.848;2023-09-19T14:18:30;3.25;;;1.10;;
40501;SDS011;29631;49.168;9.848;2023-09-19T14:20:56;0.90;;;0.90;;
40501;SDS011;29631;49.168;9.848;2023-09-19T14:23:22;1.05;;;1.00;;
40501;SDS011;29631;49.168;9.848;2023-09-19T14:25:48;1.00;;;1.00;;
40501;SDS011;29631;49.168;9.848;2023-09-19T14:28:16;1.10;;;1.10;;
40501;SDS011;29631;49.168;9.848;2023-09-19T14:30:43;3.33;;;1.10;;
40501;SDS011;29631;49.168;9.848;2023-09-19T14:33:09;1.15;;;1.05;;
40501;SDS011;29631;49.168;9.848;2023-09-19T14:35:36;1.10;;;1.10;;
40501;SDS011;29631;49.168;9.848;2023-09-19T14:38:03;1.20;;;1.10;;
40501;SDS011;29631;49.168;9.848;2023-09-19T14:40:29;1.20;;;1.20;;
40501;SDS011;29631;49.168;9.848;2023-09-19T14:42:56;1.13;;;1.10;;
40501;SDS011;29631;49.168;9.848;2023-09-19T14:45:21;0.90;;;0.90;;
40501;SDS011;29631;49.168;9.848;2023-09-19T14:47:48;1.73;;;1.08;;
40501;SDS011;29631;49.168;9.848;2023-09-19T14:50:17;0.90;;;0.90;;
40501;SDS011;29631;49.168;9.848;2023-09-19T14:52:43;1.52;;;1.05;;
40501;SDS011;29631;49.168;9.848;2023-09-19T14:55:09;1.00;;;1.00;;
40501;SDS011;29631;49.168;9.848;2023-09-19T14:57:39;1.10;;;1.00;;
40501;SDS011;29631;49.168;9.848;2023-09-19T15:00:05;1.00;;;1.00;;
40501;SDS011;29631;49.168;9.848;2023-09-19T15:02:37;1.15;;;1.13;;
40501;SDS011;29631;49.168;9.848;2023-09-19T15:05:06;1.95;;;1.10;;
40501;SDS011;29631;49.168;9.848;2023-09-19T15:07:34;1.23;;;1.20;;
40501;SDS011;29631;49.168;9.848;2023-09-19T15:10:03;1.15;;;1.13;;
40501;SDS011;29631;49.168;9.848;2023-09-19T15:12:32;1.23;;;1.05;;
40501;SDS011;29631;49.168;9.848;2023-09-19T15:14:58;1.10;;;1.10;;
40501;SDS011;29631;49.168;9.848;2023-09-19T15:17:24;1.13;;;1.10;;
40501;SDS011;29631;49.168;9.848;2023-09-19T15:19:50;1.00;;;1.00;;
40501;SDS011;29631;49.168;9.848;2023-09-19T15:22:16;1.17;;;1.08;;
40501;SDS011;29631;49.168;9.848;2023-09-19T15:24:42;1.30;;;1.20;;
40501;SDS011;29631;49.168;9.848;2023-09-19T15:27:08;0.88;;;0.88;;
40501;SDS011;29631;49.168;9.848;2023-09-19T15:29:33;1.85;;;1.15;;
40501;SDS011;29631;49.168;9.848;2023-09-19T15:31:59;1.10;;;1.10;;
40501;SDS011;29631;49.168;9.848;2023-09-19T15:34:27;1.25;;;1.25;;
40501;SDS011;29631;49.168;9.848;2023-09-19T15:36:54;1.00;;;1.00;;
40501;SDS011;29631;49.168;9.848;2023-09-19T15:39:19;1.10;;;1.10;;
40501;SDS011;29631;49.168;9.848;2023-09-19T15:41:47;1.30;;;1.30;;
40501;SDS011;29631;49.168;9.848;2023-09-19T15:44:17;1.15;;;1.10;;
40501;SDS011;29631;49.168;9.848;2023-09-19T15:46:44;1.00;;;0.98;;
40501;SDS011;29631;49.168;9.848;2023-09-19T15:49:11;1.25;;;1.15;;
40501;SDS011;29631;49.168;9.848;2023-09-19T15:51:37;1.10;;;0.98;;
40501;SDS011;29631;49.168;9.848;2023-09-19T15:54:09;1.38;;;1.10;;
40501;SDS011;29631;49.168;9.848;2023-09-19T15:56:38;1.05;;;1.05;;
40501;SDS011;29631;49.168;9.848;2023-09-19T15:59:08;21.52;;;17.90;;
40501;SDS011;29631;49.168;9.848;2023-09-19T16:01:37;21.38;;;19.08;;
40501;SDS011;29631;49.168;9.848;2023-09-19T16:04:05;9.57;;;8.68;;
40501;SDS011;29631;49.168;9.848;2023-09-19T16:06:33;5.80;;;4.88;;
40501;SDS011;29631;49.168;9.848;2023-09-19T16:09:01;3.20;;;2.90;;